sensor_id;sensor_type;location;lat;lon;timestamp;P1;durP1;ratioP1;P2;durP2;ratioP2
70213;SDS011;60138;55.808;37.078;2023-07-29T00:01:32;6.07;;;4.70;;
70213;SDS011;60138;55.808;37.078;2023-07-29T00:04:00;8.02;;;4.70;;
70213;SDS011;60138;55.808;37.078;2023-07-29T00:06:26;8.03;;;4.50;;
70213;SDS011;60138;55.808;37.078;2023-07-29T00:08:52;7.28;;;5.05;;
70213;SDS011;60138;55.808;37.078;2023-07-29T00:11:18;7.47;;;4.38;;
70213;SDS011;60138;55.808;37.078;2023-07-29T00:13:44;8.53;;;4.17;;
70213;SDS011;60138;55.808;37.078;2023-07-29T00:16:10;10.77;;;4.75;;
70213;SDS011;60138;55.808;37.078;2023-07-29T00:18:36;8.43;;;4.17;;
70213;SDS011;60138;55.808;37.078;2023-07-29T00:21:01;9.85;;;4.22;;
70213;SDS011;60138;55.808;37.078;2023-07-29T00:23:27;8.98;;;4.82;;
70213;SDS011;60138;55.808;37.078;2023-07-29T00:25:54;7.50;;;3.77;;
70213;SDS011;60138;55.808;37.078;2023-07-29T00:28:19;14.15;;;4.72;;
70213;SDS011;60138;55.808;37.078;2023-07-29T00:30:45;7.23;;;5.17;;
70213;SDS011;60138;55.808;37.078;2023-07-29T00:33:11;7.40;;;4.45;;
70213;SDS011;60138;55.808;37.078;2023-07-29T00:35:38;13.63;;;4.82;;
70213;SDS011;60138;55.808;37.078;2023-07-29T00:38:04;11.45;;;5.28;;
70213;SDS011;60138;55.808;37.078;2023-07-29T00:40:29;11.07;;;4.87;;
70213;SDS011;60138;55.808;37.078;2023-07-29T00:43:00;6.82;;;3.85;;
70213;SDS011;60138;55.808;37.078;2023-07-29T00:45:26;9.98;;;5.60;;
70213;SDS011;60138;55.808;37.078;2023-07-29T00:47:54;6.32;;;5.03;;
70213;SDS011;60138;55.808;37.078;2023-07-29T00:50:20;10.17;;;5.00;;
70213;SDS011;60138;55.808;37.078;2023-07-29T00:52:46;10.00;;;4.68;;
70213;SDS011;60138;55.808;37.078;2023-07-29T00:55:14;7.60;;;5.00;;
70213;SDS011;60138;55.808;37.078;2023-07-29T00:57:41;7.10;;;5.38;;
70213;SDS011;60138;55.808;37.078;2023-07-29T01:00:07;7.15;;;5.30;;
70213;SDS011;60138;55.808;37.078;2023-07-29T01:02:35;7.88;;;4.95;;
70213;SDS011;60138;55.808;37.078;2023-07-29T01:05:01;7.00;;;4.32;;
70213;SDS011;60138;55.808;37.078;2023-07-29T01:07:51;11.85;;;5.15;;
70213;SDS011;60138;55.808;37.078;2023-07-29T01:10:36;8.38;;;4.47;;
70213;SDS011;60138;55.808;37.078;2023-07-29T01:13:28;7.50;;;5.25;;
70213;SDS011;60138;55.808;37.078;2023-07-29T01:16:05;11.15;;;6.68;;
70213;SDS011;60138;55.808;37.078;2023-07-29T01:18:40;7.70;;;5.03;;
70213;SDS011;60138;55.808;37.078;2023-07-29T01:21:08;8.15;;;5.65;;
70213;SDS011;60138;55.808;37.078;2023-07-29T01:23:34;7.47;;;5.68;;
70213;SDS011;60138;55.808;37.078;2023-07-29T01:26:01;7.25;;;5.22;;
70213;SDS011;60138;55.808;37.078;2023-07-29T01:28:27;7.15;;;5.22;;
70213;SDS011;60138;55.808;37.078;2023-07-29T01:31:00;8.70;;;5.57;;
70213;SDS011;60138;55.808;37.078;2023-07-29T01:33:35;9.43;;;5.55;;
70213;SDS011;60138;55.808;37.078;2023-07-29T01:36:33;12.38;;;5.60;;
70213;SDS011;60138;55.808;37.078;2023-07-29T01:39:02;8.93;;;5.40;;
70213;SDS011;60138;55.808;37.078;2023-07-29T01:41:28;9.10;;;6.00;;
70213;SDS011;60138;55.808;37.078;2023-07-29T01:43:55;8.32;;;5.30;;
70213;SDS011;60138;55.808;37.078;2023-07-29T01:46:22;9.50;;;6.90;;
70213;SDS011;60138;55.808;37.078;2023-07-29T01:48:48;9.82;;;4.93;;
70213;SDS011;60138;55.808;37.078;2023-07-29T01:51:14;11.38;;;5.18;;
70213;SDS011;60138;55.808;37.078;2023-07-29T01:53:40;6.50;;;4.57;;
70213;SDS011;60138;55.808;37.078;2023-07-29T01:56:05;9.00;;;5.60;;
70213;SDS011;60138;55.808;37.078;2023-07-29T01:58:33;6.95;;;5.10;;
70213;SDS011;60138;55.808;37.078;2023-07-29T02:01:00;8.23;;;5.03;;
70213;SDS011;60138;55.808;37.078;2023-07-29T02:03:26;9.35;;;5.45;;
70213;SDS011;60138;55.808;37.078;2023-07-29T02:05:52;8.57;;;5.10;;
70213;SDS011;60138;55.808;37.078;2023-07-29T02:08:18;8.82;;;4.97;;
70213;SDS011;60138;55.808;37.078;2023-07-29T02:10:44;6.35;;;4.38;;
70213;SDS011;60138;55.808;37.078;2023-07-29T02:13:10;6.33;;;4.70;;
70213;SDS011;60138;55.808;37.078;2023-07-29T02:15:36;9.07;;;5.82;;
70213;SDS011;60138;55.808;37.078;2023-07-29T02:18:02;9.23;;;5.03;;
70213;SDS011;60138;55.808;37.078;2023-07-29T02:20:28;8.87;;;4.90;;
70213;SDS011;60138;55.808;37.078;2023-07-29T02:22:54;6.72;;;4.60;;
70213;SDS011;60138;55.808;37.078;2023-07-29T02:25:19;7.78;;;5.00;;
70213;SDS011;60138;55.808;37.078;2023-07-29T02:27:45;7.17;;;4.83;;
70213;SDS011;60138;55.808;37.078;2023-07-29T02:30:11;8.32;;;5.13;;
70213;SDS011;60138;55.808;37.078;2023-07-29T02:32:37;9.60;;;4.45;;
70213;SDS011;60138;55.808;37.078;2023-07-29T02:35:03;5.83;;;4.17;;
70213;SDS011;60138;55.808;37.078;2023-07-29T02:37:30;7.78;;;5.15;;
70213;SDS011;60138;55.808;37.078;2023-07-29T02:39:56;7.55;;;4.45;;
70213;SDS011;60138;55.808;37.078;2023-07-29T02:42:21;9.47;;;5.10;;
70213;SDS011;60138;55.808;37.078;2023-07-29T02:44:47;9.75;;;5.05;;
70213;SDS011;60138;55.808;37.078;2023-07-29T02:47:13;8.15;;;4.40;;
70213;SDS011;60138;55.808;37.078;2023-07-29T02:49:39;7.15;;;4.93;;
70213;SDS011;60138;55.808;37.078;2023-07-29T02:52:04;8.00;;;5.30;;
70213;SDS011;60138;55.808;37.078;2023-07-29T02:54:30;12.25;;;5.88;;
70213;SDS011;60138;55.808;37.078;2023-07-29T02:56:56;12.23;;;5.60;;
70213;SDS011;60138;55.808;37.078;2023-07-29T02:59:22;16.83;;;6.17;;
70213;SDS011;60138;55.808;37.078;2023-07-29T03:01:48;9.88;;;6.22;;
70213;SDS011;60138;55.808;37.078;2023-07-29T03:04:14;9.63;;;6.25;;
70213;SDS011;60138;55.808;37.078;2023-07-29T03:06:40;11.73;;;7.05;;
70213;SDS011;60138;55.808;37.078;2023-07-29T03:09:06;9.63;;;6.55;;
70213;SDS011;60138;55.808;37.078;2023-07-29T03:11:32;9.27;;;7.30;;
70213;SDS011;60138;55.808;37.078;2023-07-29T03:13:57;10.07;;;6.97;;
70213;SDS011;60138;55.808;37.078;2023-07-29T03:16:24;9.20;;;7.40;;
70213;SDS011;60138;55.808;37.078;2023-07-29T03:18:53;14.70;;;7.65;;
70213;SDS011;60138;55.808;37.078;2023-07-29T03:21:19;12.77;;;7.80;;
70213;SDS011;60138;55.808;37.078;2023-07-29T03:23:46;9.30;;;7.07;;
70213;SDS011;60138;55.808;37.078;2023-07-29T03:26:12;12.38;;;7.25;;
70213;SDS011;60138;55.808;37.078;2023-07-29T03:28:40;10.27;;;5.97;;
70213;SDS011;60138;55.808;37.078;2023-07-29T03:31:07;9.40;;;6.22;;
70213;SDS011;60138;55.808;37.078;2023-07-29T03:33:33;11.37;;;6.10;;
70213;SDS011;60138;55.808;37.078;2023-07-29T03:35:59;8.38;;;5.75;;
70213;SDS011;60138;55.808;37.078;2023-07-29T03:38:25;9.65;;;5.40;;
70213;SDS011;60138;55.808;37.078;2023-07-29T03:40:51;8.68;;;6.55;;
70213;SDS011;60138;55.808;37.078;2023-07-29T03:43:17;11.37;;;6.07;;
70213;SDS011;60138;55.808;37.078;2023-07-29T03:45:43;9.20;;;6.07;;
70213;SDS011;60138;55.808;37.078;2023-07-29T03:48:09;8.13;;;5.03;;
70213;SDS011;60138;55.808;37.078;2023-07-29T03:50:35;10.93;;;4.73;;
70213;SDS011;60138;55.808;37.078;2023-07-29T03:53:02;7.13;;;4.72;;
70213;SDS011;60138;55.808;37.078;2023-07-29T03:55:31;8.60;;;5.85;;
70213;SDS011;60138;55.808;37.078;2023-07-29T03:57:58;10.10;;;5.57;;
70213;SDS011;60138;55.808;37.078;2023-07-29T04:00:24;7.87;;;5.73;;
70213;SDS011;60138;55.808;37.078;2023-07-29T04:02:50;8.45;;;5.63;;
70213;SDS011;60138;55.808;37.078;2023-07-29T04:05:17;10.57;;;5.47;;
70213;SDS011;60138;55.808;37.078;2023-07-29T04:07:43;8.02;;;5.63;;
70213;SDS011;60138;55.808;37.078;2023-07-29T04:10:09;8.65;;;5.25;;
70213;SDS011;60138;55.808;37.078;2023-07-29T04:12:35;9.23;;;4.67;;
70213;SDS011;60138;55.808;37.078;2023-07-29T04:15:02;11.90;;;6.38;;
70213;SDS011;60138;55.808;37.078;2023-07-29T04:17:30;7.82;;;5.50;;
70213;SDS011;60138;55.808;37.078;2023-07-29T04:19:56;8.88;;;5.35;;
70213;SDS011;60138;55.808;37.078;2023-07-29T04:22:27;9.27;;;5.30;;
70213;SDS011;60138;55.808;37.078;2023-07-29T04:24:53;7.88;;;5.43;;
70213;SDS011;60138;55.808;37.078;2023-07-29T04:27:18;9.27;;;4.93;;
70213;SDS011;60138;55.808;37.078;2023-07-29T04:29:44;7.22;;;5.50;;
70213;SDS011;60138;55.808;37.078;2023-07-29T04:32:10;8.07;;;5.50;;
70213;SDS011;60138;55.808;37.078;2023-07-29T04:34:36;6.30;;;5.20;;
70213;SDS011;60138;55.808;37.078;2023-07-29T04:37:02;7.75;;;4.60;;
70213;SDS011;60138;55.808;37.078;2023-07-29T04:39:27;7.60;;;5.33;;
70213;SDS011;60138;55.808;37.078;2023-07-29T04:41:53;12.60;;;5.35;;
70213;SDS011;60138;55.808;37.078;2023-07-29T04:44:19;9.70;;;5.90;;
70213;SDS011;60138;55.808;37.078;2023-07-29T04:46:45;10.20;;;4.85;;
70213;SDS011;60138;55.808;37.078;2023-07-29T04:49:11;8.40;;;4.90;;
70213;SDS011;60138;55.808;37.078;2023-07-29T04:51:37;6.77;;;4.80;;
70213;SDS011;60138;55.808;37.078;2023-07-29T04:54:03;6.60;;;4.72;;
70213;SDS011;60138;55.808;37.078;2023-07-29T04:56:28;7.40;;;4.60;;
70213;SDS011;60138;55.808;37.078;2023-07-29T04:58:54;5.80;;;4.38;;
70213;SDS011;60138;55.808;37.078;2023-07-29T05:01:20;6.60;;;4.17;;
70213;SDS011;60138;55.808;37.078;2023-07-29T05:03:46;10.35;;;4.40;;
70213;SDS011;60138;55.808;37.078;2023-07-29T05:06:12;8.70;;;3.72;;
70213;SDS011;60138;55.808;37.078;2023-07-29T05:08:38;6.40;;;4.23;;
70213;SDS011;60138;55.808;37.078;2023-07-29T05:11:03;6.97;;;4.28;;
70213;SDS011;60138;55.808;37.078;2023-07-29T05:13:29;8.57;;;4.57;;
70213;SDS011;60138;55.808;37.078;2023-07-29T05:15:56;7.07;;;3.38;;
70213;SDS011;60138;55.808;37.078;2023-07-29T05:18:22;7.05;;;4.22;;
70213;SDS011;60138;55.808;37.078;2023-07-29T05:20:48;7.10;;;4.43;;
70213;SDS011;60138;55.808;37.078;2023-07-29T05:23:14;6.03;;;4.37;;
70213;SDS011;60138;55.808;37.078;2023-07-29T05:25:41;5.60;;;3.72;;
70213;SDS011;60138;55.808;37.078;2023-07-29T05:28:06;8.80;;;4.00;;
70213;SDS011;60138;55.808;37.078;2023-07-29T05:30:32;6.10;;;3.50;;
70213;SDS011;60138;55.808;37.078;2023-07-29T05:32:59;5.60;;;4.30;;
70213;SDS011;60138;55.808;37.078;2023-07-29T05:35:25;6.90;;;4.03;;
70213;SDS011;60138;55.808;37.078;2023-07-29T05:37:52;6.13;;;3.65;;
70213;SDS011;60138;55.808;37.078;2023-07-29T05:40:18;7.33;;;3.60;;
70213;SDS011;60138;55.808;37.078;2023-07-29T05:42:46;6.28;;;3.78;;
70213;SDS011;60138;55.808;37.078;2023-07-29T05:45:11;6.47;;;3.72;;
70213;SDS011;60138;55.808;37.078;2023-07-29T05:47:37;6.53;;;3.67;;
70213;SDS011;60138;55.808;37.078;2023-07-29T05:50:03;7.85;;;3.72;;
70213;SDS011;60138;55.808;37.078;2023-07-29T05:52:31;7.18;;;3.75;;
70213;SDS011;60138;55.808;37.078;2023-07-29T05:54:57;6.60;;;4.00;;
70213;SDS011;60138;55.808;37.078;2023-07-29T05:57:23;10.73;;;4.13;;
70213;SDS011;60138;55.808;37.078;2023-07-29T05:59:48;7.78;;;3.90;;
70213;SDS011;60138;55.808;37.078;2023-07-29T06:02:14;7.20;;;3.93;;
70213;SDS011;60138;55.808;37.078;2023-07-29T06:04:40;6.90;;;3.15;;
70213;SDS011;60138;55.808;37.078;2023-07-29T06:07:06;6.47;;;3.45;;
70213;SDS011;60138;55.808;37.078;2023-07-29T06:09:33;7.28;;;5.53;;
70213;SDS011;60138;55.808;37.078;2023-07-29T06:11:59;8.43;;;4.33;;
70213;SDS011;60138;55.808;37.078;2023-07-29T06:14:25;6.32;;;4.03;;
70213;SDS011;60138;55.808;37.078;2023-07-29T06:16:51;8.40;;;4.88;;
70213;SDS011;60138;55.808;37.078;2023-07-29T06:19:17;8.37;;;4.77;;
70213;SDS011;60138;55.808;37.078;2023-07-29T06:21:45;10.82;;;3.97;;
70213;SDS011;60138;55.808;37.078;2023-07-29T06:24:11;8.93;;;4.18;;
70213;SDS011;60138;55.808;37.078;2023-07-29T06:26:37;8.50;;;3.80;;
70213;SDS011;60138;55.808;37.078;2023-07-29T06:29:03;6.82;;;4.32;;
70213;SDS011;60138;55.808;37.078;2023-07-29T06:31:29;9.98;;;4.38;;
70213;SDS011;60138;55.808;37.078;2023-07-29T06:33:55;7.23;;;4.17;;
70213;SDS011;60138;55.808;37.078;2023-07-29T06:36:21;5.90;;;3.45;;
70213;SDS011;60138;55.808;37.078;2023-07-29T06:38:47;6.43;;;3.95;;
70213;SDS011;60138;55.808;37.078;2023-07-29T06:41:12;5.73;;;3.50;;
70213;SDS011;60138;55.808;37.078;2023-07-29T06:43:39;5.13;;;3.33;;
70213;SDS011;60138;55.808;37.078;2023-07-29T06:46:05;9.32;;;4.55;;
70213;SDS011;60138;55.808;37.078;2023-07-29T06:48:30;8.20;;;3.67;;
70213;SDS011;60138;55.808;37.078;2023-07-29T06:50:56;7.07;;;3.42;;
70213;SDS011;60138;55.808;37.078;2023-07-29T06:53:22;5.73;;;3.70;;
70213;SDS011;60138;55.808;37.078;2023-07-29T06:55:48;6.35;;;3.65;;
70213;SDS011;60138;55.808;37.078;2023-07-29T06:58:13;6.57;;;3.37;;
70213;SDS011;60138;55.808;37.078;2023-07-29T07:00:39;5.28;;;2.92;;
70213;SDS011;60138;55.808;37.078;2023-07-29T07:03:05;6.70;;;3.33;;
70213;SDS011;60138;55.808;37.078;2023-07-29T07:05:31;4.90;;;2.85;;
70213;SDS011;60138;55.808;37.078;2023-07-29T07:07:56;5.80;;;3.47;;
70213;SDS011;60138;55.808;37.078;2023-07-29T07:10:22;4.53;;;2.60;;
70213;SDS011;60138;55.808;37.078;2023-07-29T07:12:48;5.27;;;3.27;;
70213;SDS011;60138;55.808;37.078;2023-07-29T07:15:13;4.45;;;3.00;;
70213;SDS011;60138;55.808;37.078;2023-07-29T07:17:39;4.97;;;2.93;;
70213;SDS011;60138;55.808;37.078;2023-07-29T07:20:05;7.18;;;2.75;;
70213;SDS011;60138;55.808;37.078;2023-07-29T07:22:31;4.70;;;2.42;;
70213;SDS011;60138;55.808;37.078;2023-07-29T07:24:57;3.73;;;2.37;;
70213;SDS011;60138;55.808;37.078;2023-07-29T07:27:23;6.25;;;2.63;;
70213;SDS011;60138;55.808;37.078;2023-07-29T07:29:49;4.70;;;3.23;;
70213;SDS011;60138;55.808;37.078;2023-07-29T07:32:14;5.78;;;2.97;;
70213;SDS011;60138;55.808;37.078;2023-07-29T07:34:40;6.73;;;3.20;;
70213;SDS011;60138;55.808;37.078;2023-07-29T07:37:06;5.35;;;3.45;;
70213;SDS011;60138;55.808;37.078;2023-07-29T07:39:32;6.10;;;3.47;;
70213;SDS011;60138;55.808;37.078;2023-07-29T07:41:57;6.67;;;2.80;;
70213;SDS011;60138;55.808;37.078;2023-07-29T07:44:23;4.53;;;2.70;;
70213;SDS011;60138;55.808;37.078;2023-07-29T07:46:49;5.90;;;3.10;;
70213;SDS011;60138;55.808;37.078;2023-07-29T07:49:15;8.88;;;2.85;;
70213;SDS011;60138;55.808;37.078;2023-07-29T07:51:42;5.35;;;2.72;;
70213;SDS011;60138;55.808;37.078;2023-07-29T07:54:09;5.63;;;2.40;;
70213;SDS011;60138;55.808;37.078;2023-07-29T07:56:34;4.07;;;2.20;;
70213;SDS011;60138;55.808;37.078;2023-07-29T07:59:00;11.45;;;2.70;;
70213;SDS011;60138;55.808;37.078;2023-07-29T08:01:26;8.83;;;2.50;;
70213;SDS011;60138;55.808;37.078;2023-07-29T08:03:52;6.47;;;2.78;;
70213;SDS011;60138;55.808;37.078;2023-07-29T08:06:17;5.28;;;3.53;;
70213;SDS011;60138;55.808;37.078;2023-07-29T08:08:43;7.30;;;2.83;;
70213;SDS011;60138;55.808;37.078;2023-07-29T08:11:09;6.40;;;2.58;;
70213;SDS011;60138;55.808;37.078;2023-07-29T08:13:35;5.00;;;2.90;;
70213;SDS011;60138;55.808;37.078;2023-07-29T08:16:00;5.57;;;2.50;;
70213;SDS011;60138;55.808;37.078;2023-07-29T08:18:26;8.35;;;3.47;;
70213;SDS011;60138;55.808;37.078;2023-07-29T08:20:55;4.97;;;2.60;;
70213;SDS011;60138;55.808;37.078;2023-07-29T08:23:22;5.20;;;2.35;;
70213;SDS011;60138;55.808;37.078;2023-07-29T08:25:52;4.93;;;2.83;;
70213;SDS011;60138;55.808;37.078;2023-07-29T08:28:22;5.07;;;2.63;;
70213;SDS011;60138;55.808;37.078;2023-07-29T08:30:49;5.43;;;2.37;;
70213;SDS011;60138;55.808;37.078;2023-07-29T08:33:14;6.95;;;2.72;;
70213;SDS011;60138;55.808;37.078;2023-07-29T08:35:40;5.25;;;2.40;;
70213;SDS011;60138;55.808;37.078;2023-07-29T08:38:06;5.27;;;2.80;;
70213;SDS011;60138;55.808;37.078;2023-07-29T08:40:32;5.70;;;2.65;;
70213;SDS011;60138;55.808;37.078;2023-07-29T08:43:05;8.50;;;2.78;;
70213;SDS011;60138;55.808;37.078;2023-07-29T08:45:35;6.93;;;2.07;;
70213;SDS011;60138;55.808;37.078;2023-07-29T08:48:02;8.60;;;3.45;;
70213;SDS011;60138;55.808;37.078;2023-07-29T08:50:32;7.60;;;2.60;;
70213;SDS011;60138;55.808;37.078;2023-07-29T08:53:00;3.25;;;1.80;;
70213;SDS011;60138;55.808;37.078;2023-07-29T08:55:31;4.38;;;2.63;;
70213;SDS011;60138;55.808;37.078;2023-07-29T08:57:57;7.03;;;2.50;;
70213;SDS011;60138;55.808;37.078;2023-07-29T09:00:25;4.85;;;2.58;;
70213;SDS011;60138;55.808;37.078;2023-07-29T09:02:51;6.75;;;2.42;;
70213;SDS011;60138;55.808;37.078;2023-07-29T09:05:17;9.25;;;3.05;;
70213;SDS011;60138;55.808;37.078;2023-07-29T09:07:44;5.07;;;2.72;;
70213;SDS011;60138;55.808;37.078;2023-07-29T09:10:13;3.22;;;2.30;;
70213;SDS011;60138;55.808;37.078;2023-07-29T09:12:39;5.72;;;2.38;;
70213;SDS011;60138;55.808;37.078;2023-07-29T09:15:05;6.18;;;2.65;;
70213;SDS011;60138;55.808;37.078;2023-07-29T09:17:35;6.40;;;2.20;;
70213;SDS011;60138;55.808;37.078;2023-07-29T09:20:00;6.32;;;3.05;;
70213;SDS011;60138;55.808;37.078;2023-07-29T09:22:27;8.70;;;2.67;;
70213;SDS011;60138;55.808;37.078;2023-07-29T09:24:53;8.40;;;3.00;;
70213;SDS011;60138;55.808;37.078;2023-07-29T09:27:25;6.30;;;2.63;;
70213;SDS011;60138;55.808;37.078;2023-07-29T09:29:52;7.15;;;2.53;;
70213;SDS011;60138;55.808;37.078;2023-07-29T09:32:22;6.07;;;2.83;;
70213;SDS011;60138;55.808;37.078;2023-07-29T09:34:49;6.97;;;2.50;;
70213;SDS011;60138;55.808;37.078;2023-07-29T09:37:21;6.00;;;2.53;;
70213;SDS011;60138;55.808;37.078;2023-07-29T09:39:48;5.43;;;1.95;;
70213;SDS011;60138;55.808;37.078;2023-07-29T09:42:18;3.92;;;2.30;;
70213;SDS011;60138;55.808;37.078;2023-07-29T09:44:45;3.63;;;2.30;;
70213;SDS011;60138;55.808;37.078;2023-07-29T09:47:30;5.40;;;2.70;;
70213;SDS011;60138;55.808;37.078;2023-07-29T09:49:55;6.03;;;2.55;;
70213;SDS011;60138;55.808;37.078;2023-07-29T09:52:22;6.30;;;2.40;;
70213;SDS011;60138;55.808;37.078;2023-07-29T09:54:48;3.85;;;1.85;;
70213;SDS011;60138;55.808;37.078;2023-07-29T09:57:14;6.18;;;2.42;;
70213;SDS011;60138;55.808;37.078;2023-07-29T09:59:42;6.00;;;2.08;;
70213;SDS011;60138;55.808;37.078;2023-07-29T10:02:09;6.77;;;1.93;;
70213;SDS011;60138;55.808;37.078;2023-07-29T10:04:43;5.47;;;2.15;;
70213;SDS011;60138;55.808;37.078;2023-07-29T10:07:11;4.57;;;2.58;;
70213;SDS011;60138;55.808;37.078;2023-07-29T10:09:37;7.72;;;2.90;;
70213;SDS011;60138;55.808;37.078;2023-07-29T10:12:08;10.68;;;3.40;;
70213;SDS011;60138;55.808;37.078;2023-07-29T10:14:35;3.80;;;2.10;;
70213;SDS011;60138;55.808;37.078;2023-07-29T10:17:03;5.78;;;2.28;;
70213;SDS011;60138;55.808;37.078;2023-07-29T10:19:30;5.00;;;2.28;;
70213;SDS011;60138;55.808;37.078;2023-07-29T10:21:58;5.63;;;2.45;;
70213;SDS011;60138;55.808;37.078;2023-07-29T10:24:26;11.38;;;2.55;;
70213;SDS011;60138;55.808;37.078;2023-07-29T10:26:57;6.27;;;2.13;;
70213;SDS011;60138;55.808;37.078;2023-07-29T10:29:24;4.53;;;2.15;;
70213;SDS011;60138;55.808;37.078;2023-07-29T10:31:54;7.80;;;2.50;;
70213;SDS011;60138;55.808;37.078;2023-07-29T10:34:22;5.88;;;2.33;;
70213;SDS011;60138;55.808;37.078;2023-07-29T10:36:49;5.60;;;2.58;;
70213;SDS011;60138;55.808;37.078;2023-07-29T10:39:15;6.43;;;2.47;;
70213;SDS011;60138;55.808;37.078;2023-07-29T10:41:54;4.68;;;2.70;;
70213;SDS011;60138;55.808;37.078;2023-07-29T10:49:41;6.63;;;2.92;;
70213;SDS011;60138;55.808;37.078;2023-07-29T10:52:15;10.02;;;4.00;;
70213;SDS011;60138;55.808;37.078;2023-07-29T10:54:45;7.82;;;3.40;;
70213;SDS011;60138;55.808;37.078;2023-07-29T10:57:13;7.90;;;3.10;;
70213;SDS011;60138;55.808;37.078;2023-07-29T10:59:39;7.25;;;3.33;;
70213;SDS011;60138;55.808;37.078;2023-07-29T11:02:11;7.78;;;2.85;;
70213;SDS011;60138;55.808;37.078;2023-07-29T11:04:50;4.43;;;2.10;;
70213;SDS011;60138;55.808;37.078;2023-07-29T11:17:57;7.18;;;3.42;;
70213;SDS011;60138;55.808;37.078;2023-07-29T11:20:28;6.22;;;2.40;;
70213;SDS011;60138;55.808;37.078;2023-07-29T11:22:55;8.77;;;2.90;;
70213;SDS011;60138;55.808;37.078;2023-07-29T11:25:22;7.72;;;3.75;;
70213;SDS011;60138;55.808;37.078;2023-07-29T11:27:53;6.68;;;3.10;;
70213;SDS011;60138;55.808;37.078;2023-07-29T11:30:20;4.30;;;2.70;;
70213;SDS011;60138;55.808;37.078;2023-07-29T11:32:46;4.87;;;2.50;;
70213;SDS011;60138;55.808;37.078;2023-07-29T11:35:16;3.78;;;2.45;;
70213;SDS011;60138;55.808;37.078;2023-07-29T11:37:44;12.98;;;3.75;;
70213;SDS011;60138;55.808;37.078;2023-07-29T11:40:23;7.32;;;3.00;;
70213;SDS011;60138;55.808;37.078;2023-07-29T11:42:50;6.90;;;3.53;;
70213;SDS011;60138;55.808;37.078;2023-07-29T11:45:17;8.83;;;2.83;;
70213;SDS011;60138;55.808;37.078;2023-07-29T11:47:44;6.00;;;2.85;;
70213;SDS011;60138;55.808;37.078;2023-07-29T11:50:11;8.00;;;2.67;;
70213;SDS011;60138;55.808;37.078;2023-07-29T11:52:39;6.53;;;2.55;;
70213;SDS011;60138;55.808;37.078;2023-07-29T11:55:06;4.72;;;2.38;;
70213;SDS011;60138;55.808;37.078;2023-07-29T11:57:33;4.80;;;2.20;;
70213;SDS011;60138;55.808;37.078;2023-07-29T12:00:02;5.82;;;2.50;;
70213;SDS011;60138;55.808;37.078;2023-07-29T12:02:39;5.93;;;3.00;;
70213;SDS011;60138;55.808;37.078;2023-07-29T12:05:06;6.53;;;2.40;;
70213;SDS011;60138;55.808;37.078;2023-07-29T12:07:34;5.03;;;2.55;;
70213;SDS011;60138;55.808;37.078;2023-07-29T12:10:01;5.83;;;2.20;;
70213;SDS011;60138;55.808;37.078;2023-07-29T12:12:30;5.03;;;2.72;;
70213;SDS011;60138;55.808;37.078;2023-07-29T12:14:56;4.68;;;2.35;;
70213;SDS011;60138;55.808;37.078;2023-07-29T12:17:22;5.43;;;2.30;;
70213;SDS011;60138;55.808;37.078;2023-07-29T12:19:47;5.03;;;2.20;;
70213;SDS011;60138;55.808;37.078;2023-07-29T12:22:17;3.92;;;2.08;;
70213;SDS011;60138;55.808;37.078;2023-07-29T12:24:45;4.85;;;2.17;;
70213;SDS011;60138;55.808;37.078;2023-07-29T12:27:12;5.20;;;2.07;;
70213;SDS011;60138;55.808;37.078;2023-07-29T12:29:42;4.80;;;2.47;;
70213;SDS011;60138;55.808;37.078;2023-07-29T12:32:09;6.88;;;2.78;;
70213;SDS011;60138;55.808;37.078;2023-07-29T12:34:37;4.47;;;2.70;;
70213;SDS011;60138;55.808;37.078;2023-07-29T12:37:03;4.95;;;2.20;;
70213;SDS011;60138;55.808;37.078;2023-07-29T12:39:31;5.72;;;3.08;;
70213;SDS011;60138;55.808;37.078;2023-07-29T12:41:58;4.57;;;2.85;;
70213;SDS011;60138;55.808;37.078;2023-07-29T12:44:32;8.10;;;4.50;;
70213;SDS011;60138;55.808;37.078;2023-07-29T12:47:00;6.88;;;4.03;;
70213;SDS011;60138;55.808;37.078;2023-07-29T12:49:27;4.50;;;2.70;;
70213;SDS011;60138;55.808;37.078;2023-07-29T12:51:53;8.80;;;4.53;;
70213;SDS011;60138;55.808;37.078;2023-07-29T12:54:19;7.15;;;3.92;;
70213;SDS011;60138;55.808;37.078;2023-07-29T12:56:45;4.10;;;2.40;;
70213;SDS011;60138;55.808;37.078;2023-07-29T12:59:10;5.55;;;2.97;;
70213;SDS011;60138;55.808;37.078;2023-07-29T13:01:36;11.23;;;3.47;;
70213;SDS011;60138;55.808;37.078;2023-07-29T13:04:02;4.70;;;3.15;;
70213;SDS011;60138;55.808;37.078;2023-07-29T13:06:27;7.17;;;2.90;;
70213;SDS011;60138;55.808;37.078;2023-07-29T13:08:53;7.32;;;3.33;;
70213;SDS011;60138;55.808;37.078;2023-07-29T13:11:19;5.57;;;3.23;;
70213;SDS011;60138;55.808;37.078;2023-07-29T13:13:45;8.55;;;2.83;;
70213;SDS011;60138;55.808;37.078;2023-07-29T13:16:11;8.88;;;2.72;;
70213;SDS011;60138;55.808;37.078;2023-07-29T13:18:37;7.83;;;2.30;;
70213;SDS011;60138;55.808;37.078;2023-07-29T13:21:03;4.68;;;2.67;;
70213;SDS011;60138;55.808;37.078;2023-07-29T13:23:29;7.40;;;2.60;;
70213;SDS011;60138;55.808;37.078;2023-07-29T13:25:55;7.43;;;3.15;;
70213;SDS011;60138;55.808;37.078;2023-07-29T13:28:21;5.05;;;3.05;;
70213;SDS011;60138;55.808;37.078;2023-07-29T13:30:47;6.17;;;2.83;;
70213;SDS011;60138;55.808;37.078;2023-07-29T13:33:13;9.38;;;3.40;;
70213;SDS011;60138;55.808;37.078;2023-07-29T13:35:39;7.35;;;3.28;;
70213;SDS011;60138;55.808;37.078;2023-07-29T13:38:04;4.90;;;2.60;;
70213;SDS011;60138;55.808;37.078;2023-07-29T13:40:31;10.73;;;3.72;;
70213;SDS011;60138;55.808;37.078;2023-07-29T13:42:57;6.90;;;3.35;;
70213;SDS011;60138;55.808;37.078;2023-07-29T13:45:23;5.33;;;2.77;;
70213;SDS011;60138;55.808;37.078;2023-07-29T13:47:48;6.05;;;2.90;;
70213;SDS011;60138;55.808;37.078;2023-07-29T13:50:14;4.28;;;2.45;;
70213;SDS011;60138;55.808;37.078;2023-07-29T13:52:40;4.87;;;2.57;;
70213;SDS011;60138;55.808;37.078;2023-07-29T13:55:06;7.80;;;2.75;;
70213;SDS011;60138;55.808;37.078;2023-07-29T13:57:32;5.93;;;2.90;;
70213;SDS011;60138;55.808;37.078;2023-07-29T13:59:58;7.57;;;2.80;;
70213;SDS011;60138;55.808;37.078;2023-07-29T14:02:24;7.70;;;2.10;;
70213;SDS011;60138;55.808;37.078;2023-07-29T14:04:50;9.10;;;3.38;;
70213;SDS011;60138;55.808;37.078;2023-07-29T14:07:16;19.50;;;7.30;;
70213;SDS011;60138;55.808;37.078;2023-07-29T14:09:41;8.65;;;3.88;;
70213;SDS011;60138;55.808;37.078;2023-07-29T14:12:07;9.73;;;3.37;;
70213;SDS011;60138;55.808;37.078;2023-07-29T14:14:33;5.65;;;2.85;;
70213;SDS011;60138;55.808;37.078;2023-07-29T14:16:59;5.65;;;2.60;;
70213;SDS011;60138;55.808;37.078;2023-07-29T14:19:24;7.83;;;2.70;;
70213;SDS011;60138;55.808;37.078;2023-07-29T14:21:50;7.43;;;2.83;;
70213;SDS011;60138;55.808;37.078;2023-07-29T14:24:16;7.43;;;2.67;;
70213;SDS011;60138;55.808;37.078;2023-07-29T14:26:42;4.97;;;2.20;;
70213;SDS011;60138;55.808;37.078;2023-07-29T14:29:07;6.80;;;2.20;;
70213;SDS011;60138;55.808;37.078;2023-07-29T14:31:33;6.20;;;2.30;;
70213;SDS011;60138;55.808;37.078;2023-07-29T14:33:59;7.00;;;2.50;;
70213;SDS011;60138;55.808;37.078;2023-07-29T14:36:25;8.20;;;4.90;;
70213;SDS011;60138;55.808;37.078;2023-07-29T14:38:51;10.63;;;6.30;;
70213;SDS011;60138;55.808;37.078;2023-07-29T14:41:17;11.00;;;7.40;;
70213;SDS011;60138;55.808;37.078;2023-07-29T14:43:43;6.63;;;4.05;;
70213;SDS011;60138;55.808;37.078;2023-07-29T14:46:09;10.50;;;3.05;;
70213;SDS011;60138;55.808;37.078;2023-07-29T14:48:34;7.67;;;2.83;;